Terminal Aerodrome Forecast
Issued by NWS Wichita, KS

Home | Current Version | Previous Version | Text Only | Print | Product List | Glossary Off
Versions: 1 2 3 4 5 6 7 8 9 10 11 12 13 14 15 16 17 18 19 20 21 22 23 24 25

000
FTUS43 KICT 252320
TAFICT
TAF
KICT 252320Z 2600/2624 17013G20KT P6SM VCTS SCT050CB
     FM260200 16009KT P6SM FEW150
     FM260900 17012KT P6SM BKN015
     FM261200 17011KT P6SM BKN008
     FM261600 17014G21KT P6SM SCT025
     FM262200 17019G27KT P6SM VCTS SCT040CB BKN100=

USA.gov is the U.S. government's official web portal to all federal, state and local government web resources and services.